sensor_id;sensor_type;location;lat;lon;timestamp;P1;durP1;ratioP1;P2;durP2;ratioP2
73557;SDS011;61829;53.286;10.434;2023-07-13T00:00:12;4.22;;;1.73;;
73557;SDS011;61829;53.286;10.434;2023-07-13T00:03:02;5.32;;;2.25;;
73557;SDS011;61829;53.286;10.434;2023-07-13T00:07:54;5.90;;;2.03;;
73557;SDS011;61829;53.286;10.434;2023-07-13T00:10:20;5.07;;;2.55;;
73557;SDS011;61829;53.286;10.434;2023-07-13T00:12:47;5.35;;;2.13;;
73557;SDS011;61829;53.286;10.434;2023-07-13T00:15:16;7.78;;;2.33;;
73557;SDS011;61829;53.286;10.434;2023-07-13T00:17:49;7.22;;;2.40;;
73557;SDS011;61829;53.286;10.434;2023-07-13T00:20:15;3.47;;;2.20;;
73557;SDS011;61829;53.286;10.434;2023-07-13T00:22:42;4.35;;;2.20;;
73557;SDS011;61829;53.286;10.434;2023-07-13T00:25:09;5.78;;;2.42;;
73557;SDS011;61829;53.286;10.434;2023-07-13T00:27:36;7.88;;;2.60;;
73557;SDS011;61829;53.286;10.434;2023-07-13T00:30:02;5.07;;;2.00;;
73557;SDS011;61829;53.286;10.434;2023-07-13T00:32:30;5.97;;;2.25;;
73557;SDS011;61829;53.286;10.434;2023-07-13T00:34:57;10.05;;;2.67;;
73557;SDS011;61829;53.286;10.434;2023-07-13T00:37:23;5.97;;;2.42;;
73557;SDS011;61829;53.286;10.434;2023-07-13T00:39:49;5.55;;;2.33;;
73557;SDS011;61829;53.286;10.434;2023-07-13T00:42:15;7.72;;;2.40;;
73557;SDS011;61829;53.286;10.434;2023-07-13T00:45:00;6.25;;;2.45;;
73557;SDS011;61829;53.286;10.434;2023-07-13T00:47:26;7.35;;;2.50;;
73557;SDS011;61829;53.286;10.434;2023-07-13T00:49:52;8.32;;;2.45;;
73557;SDS011;61829;53.286;10.434;2023-07-13T00:52:19;4.60;;;2.45;;
73557;SDS011;61829;53.286;10.434;2023-07-13T00:57:16;5.63;;;2.60;;
73557;SDS011;61829;53.286;10.434;2023-07-13T00:59:45;3.78;;;2.42;;
73557;SDS011;61829;53.286;10.434;2023-07-13T01:02:15;6.30;;;2.50;;
73557;SDS011;61829;53.286;10.434;2023-07-13T01:04:41;8.85;;;2.90;;
73557;SDS011;61829;53.286;10.434;2023-07-13T01:07:09;4.75;;;2.63;;
73557;SDS011;61829;53.286;10.434;2023-07-13T01:09:37;7.25;;;2.90;;
73557;SDS011;61829;53.286;10.434;2023-07-13T01:12:03;5.65;;;2.65;;
73557;SDS011;61829;53.286;10.434;2023-07-13T01:14:29;4.55;;;2.50;;
73557;SDS011;61829;53.286;10.434;2023-07-13T01:16:55;5.38;;;2.67;;
73557;SDS011;61829;53.286;10.434;2023-07-13T01:22:09;5.72;;;2.53;;
73557;SDS011;61829;53.286;10.434;2023-07-13T01:24:37;6.75;;;2.70;;
73557;SDS011;61829;53.286;10.434;2023-07-13T01:27:07;5.18;;;2.80;;
73557;SDS011;61829;53.286;10.434;2023-07-13T01:29:35;5.63;;;2.33;;
73557;SDS011;61829;53.286;10.434;2023-07-13T01:34:34;4.32;;;2.53;;
73557;SDS011;61829;53.286;10.434;2023-07-13T01:37:00;6.53;;;2.72;;
73557;SDS011;61829;53.286;10.434;2023-07-13T01:39:26;5.50;;;2.83;;
73557;SDS011;61829;53.286;10.434;2023-07-13T01:41:52;5.50;;;2.92;;
73557;SDS011;61829;53.286;10.434;2023-07-13T01:44:23;5.47;;;3.17;;
73557;SDS011;61829;53.286;10.434;2023-07-13T01:46:50;5.55;;;2.55;;
73557;SDS011;61829;53.286;10.434;2023-07-13T01:49:16;5.15;;;2.70;;
73557;SDS011;61829;53.286;10.434;2023-07-13T01:51:42;7.15;;;3.00;;
73557;SDS011;61829;53.286;10.434;2023-07-13T01:54:07;6.68;;;2.80;;
73557;SDS011;61829;53.286;10.434;2023-07-13T01:56:33;6.85;;;2.85;;
73557;SDS011;61829;53.286;10.434;2023-07-13T01:58:59;6.78;;;3.50;;
73557;SDS011;61829;53.286;10.434;2023-07-13T02:01:25;8.52;;;3.40;;
73557;SDS011;61829;53.286;10.434;2023-07-13T02:03:50;4.72;;;2.67;;
73557;SDS011;61829;53.286;10.434;2023-07-13T02:06:17;6.32;;;2.95;;
73557;SDS011;61829;53.286;10.434;2023-07-13T02:08:42;5.35;;;2.92;;
73557;SDS011;61829;53.286;10.434;2023-07-13T02:11:08;6.75;;;3.00;;
73557;SDS011;61829;53.286;10.434;2023-07-13T02:17:44;5.22;;;2.83;;
73557;SDS011;61829;53.286;10.434;2023-07-13T02:20:10;5.28;;;3.17;;
73557;SDS011;61829;53.286;10.434;2023-07-13T02:22:36;6.30;;;2.90;;
73557;SDS011;61829;53.286;10.434;2023-07-13T02:25:02;6.53;;;3.00;;
73557;SDS011;61829;53.286;10.434;2023-07-13T02:27:28;8.07;;;3.05;;
73557;SDS011;61829;53.286;10.434;2023-07-13T02:29:54;5.30;;;3.10;;
73557;SDS011;61829;53.286;10.434;2023-07-13T02:32:19;4.35;;;3.00;;
73557;SDS011;61829;53.286;10.434;2023-07-13T02:34:45;6.88;;;3.17;;
73557;SDS011;61829;53.286;10.434;2023-07-13T02:37:11;5.70;;;2.90;;
73557;SDS011;61829;53.286;10.434;2023-07-13T02:39:37;4.28;;;2.97;;
73557;SDS011;61829;53.286;10.434;2023-07-13T02:42:04;5.72;;;2.83;;
73557;SDS011;61829;53.286;10.434;2023-07-13T02:44:30;7.25;;;3.20;;
73557;SDS011;61829;53.286;10.434;2023-07-13T02:46:56;5.78;;;3.30;;
73557;SDS011;61829;53.286;10.434;2023-07-13T02:49:22;4.55;;;2.90;;
73557;SDS011;61829;53.286;10.434;2023-07-13T02:54:45;5.43;;;3.00;;
73557;SDS011;61829;53.286;10.434;2023-07-13T02:57:10;5.88;;;3.33;;
73557;SDS011;61829;53.286;10.434;2023-07-13T02:59:36;6.32;;;3.35;;
73557;SDS011;61829;53.286;10.434;2023-07-13T03:02:02;5.85;;;2.80;;
73557;SDS011;61829;53.286;10.434;2023-07-13T03:04:29;5.20;;;3.22;;
73557;SDS011;61829;53.286;10.434;2023-07-13T03:06:55;6.65;;;3.13;;
73557;SDS011;61829;53.286;10.434;2023-07-13T03:09:24;6.93;;;4.00;;
73557;SDS011;61829;53.286;10.434;2023-07-13T03:11:52;8.45;;;3.60;;
73557;SDS011;61829;53.286;10.434;2023-07-13T03:14:20;4.93;;;3.05;;
73557;SDS011;61829;53.286;10.434;2023-07-13T03:20:58;3.78;;;2.95;;
73557;SDS011;61829;53.286;10.434;2023-07-13T03:23:25;10.18;;;3.33;;
73557;SDS011;61829;53.286;10.434;2023-07-13T03:26:00;5.70;;;3.05;;
73557;SDS011;61829;53.286;10.434;2023-07-13T03:28:27;8.00;;;3.33;;
73557;SDS011;61829;53.286;10.434;2023-07-13T03:33:42;9.10;;;3.30;;
73557;SDS011;61829;53.286;10.434;2023-07-13T03:36:28;6.43;;;3.15;;
73557;SDS011;61829;53.286;10.434;2023-07-13T03:38:56;6.45;;;3.20;;
73557;SDS011;61829;53.286;10.434;2023-07-13T03:41:24;6.53;;;3.70;;
73557;SDS011;61829;53.286;10.434;2023-07-13T03:43:51;5.95;;;3.20;;
73557;SDS011;61829;53.286;10.434;2023-07-13T03:46:17;5.88;;;3.10;;
73557;SDS011;61829;53.286;10.434;2023-07-13T03:48:44;5.50;;;3.55;;
73557;SDS011;61829;53.286;10.434;2023-07-13T03:51:11;6.32;;;3.20;;
73557;SDS011;61829;53.286;10.434;2023-07-13T03:53:41;6.55;;;3.30;;
73557;SDS011;61829;53.286;10.434;2023-07-13T03:56:08;6.32;;;3.53;;
73557;SDS011;61829;53.286;10.434;2023-07-13T03:58:38;5.05;;;3.50;;
73557;SDS011;61829;53.286;10.434;2023-07-13T04:01:06;6.95;;;3.03;;
73557;SDS011;61829;53.286;10.434;2023-07-13T04:03:34;7.88;;;3.65;;
73557;SDS011;61829;53.286;10.434;2023-07-13T04:06:00;5.40;;;3.20;;
73557;SDS011;61829;53.286;10.434;2023-07-13T04:08:28;7.32;;;3.22;;
73557;SDS011;61829;53.286;10.434;2023-07-13T04:10:55;4.57;;;3.10;;
73557;SDS011;61829;53.286;10.434;2023-07-13T04:13:22;6.72;;;3.00;;
73557;SDS011;61829;53.286;10.434;2023-07-13T04:15:48;5.93;;;3.10;;
73557;SDS011;61829;53.286;10.434;2023-07-13T04:18:14;5.05;;;2.85;;
73557;SDS011;61829;53.286;10.434;2023-07-13T04:20:40;5.65;;;3.20;;
73557;SDS011;61829;53.286;10.434;2023-07-13T04:23:06;7.07;;;3.25;;
73557;SDS011;61829;53.286;10.434;2023-07-13T04:25:32;5.80;;;2.53;;
73557;SDS011;61829;53.286;10.434;2023-07-13T04:27:58;6.25;;;2.95;;
73557;SDS011;61829;53.286;10.434;2023-07-13T04:30:24;7.88;;;2.83;;
73557;SDS011;61829;53.286;10.434;2023-07-13T04:32:50;4.05;;;2.50;;
73557;SDS011;61829;53.286;10.434;2023-07-13T04:35:18;4.65;;;2.70;;
73557;SDS011;61829;53.286;10.434;2023-07-13T04:40:46;6.75;;;2.50;;
73557;SDS011;61829;53.286;10.434;2023-07-13T04:43:13;5.88;;;2.55;;
73557;SDS011;61829;53.286;10.434;2023-07-13T04:45:39;6.30;;;2.28;;
73557;SDS011;61829;53.286;10.434;2023-07-13T04:48:05;5.78;;;2.53;;
73557;SDS011;61829;53.286;10.434;2023-07-13T04:50:31;3.20;;;2.30;;
73557;SDS011;61829;53.286;10.434;2023-07-13T04:52:57;6.95;;;2.33;;
73557;SDS011;61829;53.286;10.434;2023-07-13T04:55:23;6.63;;;2.65;;
73557;SDS011;61829;53.286;10.434;2023-07-13T04:57:49;8.77;;;2.47;;
73557;SDS011;61829;53.286;10.434;2023-07-13T05:00:15;4.55;;;2.30;;
73557;SDS011;61829;53.286;10.434;2023-07-13T05:02:43;6.28;;;2.47;;
73557;SDS011;61829;53.286;10.434;2023-07-13T05:05:09;8.27;;;2.60;;
73557;SDS011;61829;53.286;10.434;2023-07-13T05:07:35;5.38;;;2.35;;
73557;SDS011;61829;53.286;10.434;2023-07-13T05:10:02;6.78;;;2.45;;
73557;SDS011;61829;53.286;10.434;2023-07-13T05:12:29;6.00;;;2.28;;
73557;SDS011;61829;53.286;10.434;2023-07-13T05:14:55;5.13;;;2.28;;
73557;SDS011;61829;53.286;10.434;2023-07-13T05:17:22;4.30;;;2.20;;
73557;SDS011;61829;53.286;10.434;2023-07-13T05:19:48;7.05;;;2.42;;
73557;SDS011;61829;53.286;10.434;2023-07-13T05:22:14;5.00;;;2.30;;
73557;SDS011;61829;53.286;10.434;2023-07-13T05:24:39;5.68;;;1.95;;
73557;SDS011;61829;53.286;10.434;2023-07-13T05:27:05;4.63;;;1.90;;
73557;SDS011;61829;53.286;10.434;2023-07-13T05:29:31;4.80;;;1.88;;
73557;SDS011;61829;53.286;10.434;2023-07-13T05:31:57;6.68;;;2.28;;
73557;SDS011;61829;53.286;10.434;2023-07-13T05:34:23;4.78;;;1.90;;
73557;SDS011;61829;53.286;10.434;2023-07-13T05:36:49;4.50;;;2.00;;
73557;SDS011;61829;53.286;10.434;2023-07-13T05:39:15;5.95;;;2.00;;
73557;SDS011;61829;53.286;10.434;2023-07-13T05:41:42;4.18;;;1.90;;
73557;SDS011;61829;53.286;10.434;2023-07-13T05:44:08;6.57;;;1.83;;
73557;SDS011;61829;53.286;10.434;2023-07-13T05:46:34;7.07;;;1.63;;
73557;SDS011;61829;53.286;10.434;2023-07-13T05:48:59;4.97;;;1.52;;
73557;SDS011;61829;53.286;10.434;2023-07-13T05:51:25;7.38;;;1.98;;
73557;SDS011;61829;53.286;10.434;2023-07-13T05:53:51;7.00;;;1.75;;
73557;SDS011;61829;53.286;10.434;2023-07-13T05:56:17;6.97;;;2.05;;
73557;SDS011;61829;53.286;10.434;2023-07-13T05:58:43;7.88;;;1.70;;
73557;SDS011;61829;53.286;10.434;2023-07-13T06:01:10;6.68;;;1.80;;
73557;SDS011;61829;53.286;10.434;2023-07-13T06:03:37;7.35;;;1.98;;
73557;SDS011;61829;53.286;10.434;2023-07-13T06:06:04;6.28;;;1.63;;
73557;SDS011;61829;53.286;10.434;2023-07-13T06:08:31;5.55;;;1.52;;
73557;SDS011;61829;53.286;10.434;2023-07-13T06:13:35;7.20;;;2.03;;
73557;SDS011;61829;53.286;10.434;2023-07-13T06:16:02;7.65;;;1.70;;
73557;SDS011;61829;53.286;10.434;2023-07-13T06:18:30;8.38;;;1.73;;
73557;SDS011;61829;53.286;10.434;2023-07-13T06:21:01;6.88;;;1.75;;
73557;SDS011;61829;53.286;10.434;2023-07-13T06:23:39;6.72;;;1.63;;
73557;SDS011;61829;53.286;10.434;2023-07-13T06:26:05;7.35;;;1.90;;
73557;SDS011;61829;53.286;10.434;2023-07-13T06:32:32;9.07;;;1.98;;
73557;SDS011;61829;53.286;10.434;2023-07-13T06:34:58;7.25;;;2.13;;
73557;SDS011;61829;53.286;10.434;2023-07-13T06:37:24;7.18;;;1.83;;
73557;SDS011;61829;53.286;10.434;2023-07-13T06:39:50;9.95;;;1.98;;
73557;SDS011;61829;53.286;10.434;2023-07-13T06:42:16;6.50;;;1.50;;
73557;SDS011;61829;53.286;10.434;2023-07-13T06:44:42;6.47;;;1.70;;
73557;SDS011;61829;53.286;10.434;2023-07-13T06:47:08;7.80;;;1.95;;
73557;SDS011;61829;53.286;10.434;2023-07-13T06:49:34;9.85;;;2.65;;
73557;SDS011;61829;53.286;10.434;2023-07-13T06:52:00;5.20;;;1.70;;
73557;SDS011;61829;53.286;10.434;2023-07-13T06:54:26;6.90;;;2.10;;
73557;SDS011;61829;53.286;10.434;2023-07-13T06:56:52;8.60;;;2.17;;
73557;SDS011;61829;53.286;10.434;2023-07-13T06:59:18;4.28;;;1.60;;
73557;SDS011;61829;53.286;10.434;2023-07-13T07:04:10;7.90;;;2.00;;
73557;SDS011;61829;53.286;10.434;2023-07-13T07:06:36;7.55;;;1.98;;
73557;SDS011;61829;53.286;10.434;2023-07-13T07:09:02;7.80;;;1.67;;
73557;SDS011;61829;53.286;10.434;2023-07-13T07:11:28;7.45;;;2.30;;
73557;SDS011;61829;53.286;10.434;2023-07-13T07:13:54;11.80;;;1.70;;
73557;SDS011;61829;53.286;10.434;2023-07-13T07:16:20;11.38;;;2.30;;
73557;SDS011;61829;53.286;10.434;2023-07-13T07:18:47;5.75;;;1.85;;
73557;SDS011;61829;53.286;10.434;2023-07-13T07:21:14;6.53;;;1.90;;
73557;SDS011;61829;53.286;10.434;2023-07-13T07:23:40;7.00;;;1.83;;
73557;SDS011;61829;53.286;10.434;2023-07-13T07:26:06;6.38;;;1.88;;
73557;SDS011;61829;53.286;10.434;2023-07-13T07:28:34;7.35;;;1.88;;
73557;SDS011;61829;53.286;10.434;2023-07-13T07:31:00;7.88;;;1.80;;
73557;SDS011;61829;53.286;10.434;2023-07-13T07:33:26;10.05;;;2.10;;
73557;SDS011;61829;53.286;10.434;2023-07-13T07:35:52;7.00;;;2.00;;
73557;SDS011;61829;53.286;10.434;2023-07-13T07:38:18;7.90;;;2.10;;
73557;SDS011;61829;53.286;10.434;2023-07-13T07:40:57;7.53;;;1.85;;
73557;SDS011;61829;53.286;10.434;2023-07-13T07:43:23;11.20;;;1.92;;
73557;SDS011;61829;53.286;10.434;2023-07-13T07:45:49;7.03;;;2.10;;
73557;SDS011;61829;53.286;10.434;2023-07-13T07:48:15;9.55;;;2.08;;
73557;SDS011;61829;53.286;10.434;2023-07-13T07:50:42;7.35;;;2.00;;
73557;SDS011;61829;53.286;10.434;2023-07-13T07:53:08;8.10;;;2.17;;
73557;SDS011;61829;53.286;10.434;2023-07-13T07:55:36;8.52;;;1.90;;
73557;SDS011;61829;53.286;10.434;2023-07-13T07:58:02;8.18;;;1.80;;
73557;SDS011;61829;53.286;10.434;2023-07-13T08:00:31;8.40;;;2.03;;
73557;SDS011;61829;53.286;10.434;2023-07-13T08:02:58;7.50;;;1.83;;
73557;SDS011;61829;53.286;10.434;2023-07-13T08:05:24;9.20;;;1.80;;
73557;SDS011;61829;53.286;10.434;2023-07-13T08:07:50;9.57;;;2.10;;
73557;SDS011;61829;53.286;10.434;2023-07-13T08:10:16;9.75;;;2.17;;
73557;SDS011;61829;53.286;10.434;2023-07-13T08:12:42;5.35;;;1.83;;
73557;SDS011;61829;53.286;10.434;2023-07-13T08:15:12;10.65;;;1.85;;
73557;SDS011;61829;53.286;10.434;2023-07-13T08:17:39;8.70;;;1.60;;
73557;SDS011;61829;53.286;10.434;2023-07-13T08:20:06;7.38;;;1.70;;
73557;SDS011;61829;53.286;10.434;2023-07-13T08:22:33;4.72;;;1.42;;
73557;SDS011;61829;53.286;10.434;2023-07-13T08:24:59;8.13;;;1.73;;
73557;SDS011;61829;53.286;10.434;2023-07-13T08:27:26;5.35;;;1.63;;
73557;SDS011;61829;53.286;10.434;2023-07-13T08:29:54;7.70;;;1.67;;
73557;SDS011;61829;53.286;10.434;2023-07-13T08:32:21;11.68;;;2.33;;
73557;SDS011;61829;53.286;10.434;2023-07-13T08:34:48;8.43;;;2.15;;
73557;SDS011;61829;53.286;10.434;2023-07-13T08:37:14;7.18;;;1.80;;
73557;SDS011;61829;53.286;10.434;2023-07-13T08:39:40;8.30;;;1.63;;
73557;SDS011;61829;53.286;10.434;2023-07-13T08:47:31;11.50;;;2.00;;
73557;SDS011;61829;53.286;10.434;2023-07-13T08:50:02;7.55;;;2.03;;
73557;SDS011;61829;53.286;10.434;2023-07-13T08:52:38;7.97;;;1.80;;
73557;SDS011;61829;53.286;10.434;2023-07-13T08:55:26;6.55;;;1.92;;
73557;SDS011;61829;53.286;10.434;2023-07-13T08:57:59;7.35;;;1.77;;
73557;SDS011;61829;53.286;10.434;2023-07-13T09:00:33;8.15;;;1.75;;
73557;SDS011;61829;53.286;10.434;2023-07-13T09:03:12;5.68;;;1.77;;
73557;SDS011;61829;53.286;10.434;2023-07-13T09:05:47;7.95;;;1.75;;
73557;SDS011;61829;53.286;10.434;2023-07-13T09:10:49;5.20;;;1.40;;
73557;SDS011;61829;53.286;10.434;2023-07-13T09:16:01;5.40;;;1.67;;
73557;SDS011;61829;53.286;10.434;2023-07-13T09:21:36;8.32;;;1.90;;
73557;SDS011;61829;53.286;10.434;2023-07-13T09:27:26;5.03;;;1.42;;
73557;SDS011;61829;53.286;10.434;2023-07-13T09:30:12;7.40;;;1.67;;
73557;SDS011;61829;53.286;10.434;2023-07-13T09:32:51;4.70;;;1.38;;
73557;SDS011;61829;53.286;10.434;2023-07-13T09:35:19;5.32;;;1.58;;
73557;SDS011;61829;53.286;10.434;2023-07-13T09:37:48;7.25;;;1.60;;
73557;SDS011;61829;53.286;10.434;2023-07-13T09:40:29;5.45;;;1.50;;
73557;SDS011;61829;53.286;10.434;2023-07-13T09:43:07;5.18;;;1.50;;
73557;SDS011;61829;53.286;10.434;2023-07-13T09:45:38;4.18;;;1.40;;
73557;SDS011;61829;53.286;10.434;2023-07-13T09:48:06;4.35;;;1.40;;
73557;SDS011;61829;53.286;10.434;2023-07-13T09:50:36;3.72;;;1.40;;
73557;SDS011;61829;53.286;10.434;2023-07-13T09:53:04;6.50;;;1.60;;
73557;SDS011;61829;53.286;10.434;2023-07-13T09:55:38;5.22;;;1.50;;
73557;SDS011;61829;53.286;10.434;2023-07-13T10:00:36;6.78;;;1.55;;
73557;SDS011;61829;53.286;10.434;2023-07-13T10:03:04;4.43;;;1.40;;
73557;SDS011;61829;53.286;10.434;2023-07-13T10:05:43;3.63;;;1.35;;
73557;SDS011;61829;53.286;10.434;2023-07-13T10:08:43;6.05;;;1.45;;
73557;SDS011;61829;53.286;10.434;2023-07-13T10:11:14;7.35;;;1.80;;
73557;SDS011;61829;53.286;10.434;2023-07-13T10:13:55;5.35;;;1.67;;
73557;SDS011;61829;53.286;10.434;2023-07-13T10:16:34;5.40;;;1.50;;
73557;SDS011;61829;53.286;10.434;2023-07-13T10:21:54;6.65;;;1.67;;
73557;SDS011;61829;53.286;10.434;2023-07-13T10:24:23;4.18;;;1.40;;
73557;SDS011;61829;53.286;10.434;2023-07-13T10:29:47;4.97;;;1.40;;
73557;SDS011;61829;53.286;10.434;2023-07-13T10:32:18;5.68;;;1.50;;
73557;SDS011;61829;53.286;10.434;2023-07-13T10:34:47;4.35;;;1.40;;
73557;SDS011;61829;53.286;10.434;2023-07-13T10:37:17;5.45;;;1.52;;
73557;SDS011;61829;53.286;10.434;2023-07-13T10:39:47;4.50;;;1.40;;
73557;SDS011;61829;53.286;10.434;2023-07-13T10:42:25;6.32;;;1.67;;
73557;SDS011;61829;53.286;10.434;2023-07-13T10:44:58;6.60;;;1.52;;
73557;SDS011;61829;53.286;10.434;2023-07-13T10:47:24;5.30;;;1.55;;
73557;SDS011;61829;53.286;10.434;2023-07-13T10:49:54;6.82;;;1.70;;
73557;SDS011;61829;53.286;10.434;2023-07-13T10:58:03;4.68;;;1.73;;
73557;SDS011;61829;53.286;10.434;2023-07-13T11:03:22;6.88;;;1.50;;
73557;SDS011;61829;53.286;10.434;2023-07-13T11:05:49;5.13;;;1.25;;
73557;SDS011;61829;53.286;10.434;2023-07-13T11:15:03;5.40;;;1.95;;
73557;SDS011;61829;53.286;10.434;2023-07-13T11:17:37;6.20;;;1.90;;
73557;SDS011;61829;53.286;10.434;2023-07-13T11:22:53;4.40;;;1.42;;
73557;SDS011;61829;53.286;10.434;2023-07-13T11:25:32;5.07;;;1.52;;
73557;SDS011;61829;53.286;10.434;2023-07-13T11:28:12;5.43;;;1.60;;
73557;SDS011;61829;53.286;10.434;2023-07-13T11:33:27;7.82;;;1.60;;
73557;SDS011;61829;53.286;10.434;2023-07-13T11:38:24;4.93;;;1.83;;
73557;SDS011;61829;53.286;10.434;2023-07-13T11:40:53;5.22;;;1.90;;
73557;SDS011;61829;53.286;10.434;2023-07-13T11:43:21;6.43;;;1.63;;
73557;SDS011;61829;53.286;10.434;2023-07-13T11:45:51;4.40;;;1.40;;
73557;SDS011;61829;53.286;10.434;2023-07-13T11:48:18;5.53;;;1.50;;
73557;SDS011;61829;53.286;10.434;2023-07-13T11:50:58;6.20;;;1.73;;
73557;SDS011;61829;53.286;10.434;2023-07-13T11:53:34;3.85;;;1.38;;
73557;SDS011;61829;53.286;10.434;2023-07-13T11:56:05;5.32;;;1.50;;
73557;SDS011;61829;53.286;10.434;2023-07-13T11:58:32;5.45;;;1.77;;
73557;SDS011;61829;53.286;10.434;2023-07-13T12:01:00;6.90;;;1.60;;
73557;SDS011;61829;53.286;10.434;2023-07-13T12:03:30;4.50;;;1.60;;
73557;SDS011;61829;53.286;10.434;2023-07-13T12:06:00;4.30;;;1.70;;
73557;SDS011;61829;53.286;10.434;2023-07-13T12:08:32;3.53;;;1.40;;
73557;SDS011;61829;53.286;10.434;2023-07-13T12:11:09;3.60;;;1.70;;
73557;SDS011;61829;53.286;10.434;2023-07-13T12:13:46;5.07;;;1.70;;
73557;SDS011;61829;53.286;10.434;2023-07-13T12:19:00;3.47;;;1.70;;
73557;SDS011;61829;53.286;10.434;2023-07-13T12:21:37;3.83;;;1.60;;
73557;SDS011;61829;53.286;10.434;2023-07-13T12:24:04;3.67;;;1.70;;
73557;SDS011;61829;53.286;10.434;2023-07-13T12:26:39;4.15;;;1.70;;
73557;SDS011;61829;53.286;10.434;2023-07-13T12:29:06;4.32;;;1.70;;
73557;SDS011;61829;53.286;10.434;2023-07-13T12:31:37;4.75;;;1.52;;
73557;SDS011;61829;53.286;10.434;2023-07-13T12:36:37;4.95;;;1.80;;
73557;SDS011;61829;53.286;10.434;2023-07-13T12:41:45;4.80;;;1.80;;
73557;SDS011;61829;53.286;10.434;2023-07-13T12:44:17;3.58;;;1.50;;
73557;SDS011;61829;53.286;10.434;2023-07-13T12:46:52;5.30;;;1.88;;
73557;SDS011;61829;53.286;10.434;2023-07-13T12:49:23;3.15;;;1.52;;
73557;SDS011;61829;53.286;10.434;2023-07-13T12:51:58;3.92;;;1.58;;
73557;SDS011;61829;53.286;10.434;2023-07-13T12:54:26;3.65;;;1.67;;
73557;SDS011;61829;53.286;10.434;2023-07-13T12:56:54;2.03;;;1.45;;
73557;SDS011;61829;53.286;10.434;2023-07-13T12:59:24;5.47;;;1.75;;
73557;SDS011;61829;53.286;10.434;2023-07-13T13:01:54;2.63;;;1.60;;
73557;SDS011;61829;53.286;10.434;2023-07-13T13:04:21;4.63;;;1.40;;
73557;SDS011;61829;53.286;10.434;2023-07-13T13:06:47;5.75;;;1.48;;
73557;SDS011;61829;53.286;10.434;2023-07-13T13:09:15;4.22;;;1.60;;
73557;SDS011;61829;53.286;10.434;2023-07-13T13:11:48;3.72;;;1.40;;
73557;SDS011;61829;53.286;10.434;2023-07-13T13:14:16;4.35;;;1.67;;
73557;SDS011;61829;53.286;10.434;2023-07-13T13:16:44;4.43;;;1.48;;
73557;SDS011;61829;53.286;10.434;2023-07-13T13:19:17;4.15;;;1.35;;
73557;SDS011;61829;53.286;10.434;2023-07-13T13:21:45;4.55;;;1.50;;
73557;SDS011;61829;53.286;10.434;2023-07-13T13:24:16;3.92;;;1.60;;
73557;SDS011;61829;53.286;10.434;2023-07-13T13:26:45;4.32;;;1.52;;
73557;SDS011;61829;53.286;10.434;2023-07-13T13:29:13;4.13;;;1.60;;
73557;SDS011;61829;53.286;10.434;2023-07-13T13:31:42;5.03;;;1.60;;
73557;SDS011;61829;53.286;10.434;2023-07-13T13:34:10;3.47;;;1.60;;
73557;SDS011;61829;53.286;10.434;2023-07-13T13:36:39;3.83;;;1.80;;
73557;SDS011;61829;53.286;10.434;2023-07-13T13:39:28;7.47;;;2.35;;
73557;SDS011;61829;53.286;10.434;2023-07-13T13:41:59;4.95;;;2.08;;
73557;SDS011;61829;53.286;10.434;2023-07-13T13:44:25;3.65;;;2.00;;
73557;SDS011;61829;53.286;10.434;2023-07-13T13:46:52;5.85;;;1.80;;
73557;SDS011;61829;53.286;10.434;2023-07-13T13:49:23;4.22;;;1.90;;
73557;SDS011;61829;53.286;10.434;2023-07-13T13:51:51;3.40;;;2.00;;
73557;SDS011;61829;53.286;10.434;2023-07-13T13:54:19;5.43;;;2.20;;
73557;SDS011;61829;53.286;10.434;2023-07-13T13:56:47;5.55;;;2.60;;
73557;SDS011;61829;53.286;10.434;2023-07-13T13:59:15;5.03;;;2.17;;
73557;SDS011;61829;53.286;10.434;2023-07-13T14:01:42;4.25;;;2.25;;
73557;SDS011;61829;53.286;10.434;2023-07-13T14:04:16;5.03;;;2.50;;
73557;SDS011;61829;53.286;10.434;2023-07-13T14:06:44;6.20;;;2.20;;
73557;SDS011;61829;53.286;10.434;2023-07-13T14:09:14;5.45;;;2.42;;
73557;SDS011;61829;53.286;10.434;2023-07-13T14:11:43;5.47;;;2.40;;
73557;SDS011;61829;53.286;10.434;2023-07-13T14:14:20;5.90;;;2.85;;
73557;SDS011;61829;53.286;10.434;2023-07-13T14:16:48;4.70;;;2.60;;
73557;SDS011;61829;53.286;10.434;2023-07-13T14:19:21;6.03;;;2.60;;
73557;SDS011;61829;53.286;10.434;2023-07-13T14:21:47;3.85;;;2.50;;
73557;SDS011;61829;53.286;10.434;2023-07-13T14:24:15;5.55;;;3.00;;
73557;SDS011;61829;53.286;10.434;2023-07-13T14:26:41;5.88;;;2.50;;
73557;SDS011;61829;53.286;10.434;2023-07-13T14:29:17;4.88;;;2.63;;
73557;SDS011;61829;53.286;10.434;2023-07-13T14:31:48;4.15;;;2.40;;
73557;SDS011;61829;53.286;10.434;2023-07-13T14:34:16;5.22;;;2.45;;
73557;SDS011;61829;53.286;10.434;2023-07-13T14:36:43;5.90;;;2.80;;
73557;SDS011;61829;53.286;10.434;2023-07-13T14:39:13;4.13;;;2.42;;
73557;SDS011;61829;53.286;10.434;2023-07-13T14:41:42;7.68;;;2.72;;
73557;SDS011;61829;53.286;10.434;2023-07-13T14:44:16;4.60;;;2.38;;
73557;SDS011;61829;53.286;10.434;2023-07-13T14:46:44;5.35;;;2.13;;
73557;SDS011;61829;53.286;10.434;2023-07-13T14:49:20;6.13;;;2.33;;
73557;SDS011;61829;53.286;10.434;2023-07-13T14:51:47;4.68;;;2.40;;
73557;SDS011;61829;53.286;10.434;2023-07-13T14:54:14;5.25;;;2.28;;
73557;SDS011;61829;53.286;10.434;2023-07-13T14:56:40;5.68;;;2.30;;
73557;SDS011;61829;53.286;10.434;2023-07-13T14:59:06;5.07;;;2.50;;
73557;SDS011;61829;53.286;10.434;2023-07-13T15:01:34;3.88;;;2.20;;
73557;SDS011;61829;53.286;10.434;2023-07-13T15:04:01;5.80;;;2.42;;
73557;SDS011;61829;53.286;10.434;2023-07-13T15:06:29;5.50;;;2.25;;
73557;SDS011;61829;53.286;10.434;2023-07-13T15:08:57;4.20;;;2.20;;
73557;SDS011;61829;53.286;10.434;2023-07-13T15:11:23;4.45;;;2.38;;
73557;SDS011;61829;53.286;10.434;2023-07-13T15:13:50;5.38;;;2.40;;
73557;SDS011;61829;53.286;10.434;2023-07-13T15:18:45;4.90;;;2.22;;
73557;SDS011;61829;53.286;10.434;2023-07-13T15:21:12;5.65;;;2.33;;
73557;SDS011;61829;53.286;10.434;2023-07-13T15:23:44;4.97;;;1.85;;
73557;SDS011;61829;53.286;10.434;2023-07-13T15:26:12;4.93;;;2.08;;
73557;SDS011;61829;53.286;10.434;2023-07-13T15:28:41;3.65;;;1.90;;
73557;SDS011;61829;53.286;10.434;2023-07-13T15:31:20;3.28;;;1.77;;
73557;SDS011;61829;53.286;10.434;2023-07-13T15:36:16;4.20;;;1.65;;
73557;SDS011;61829;53.286;10.434;2023-07-13T15:38:46;3.40;;;1.77;;
73557;SDS011;61829;53.286;10.434;2023-07-13T15:43:42;5.72;;;1.88;;
73557;SDS011;61829;53.286;10.434;2023-07-13T15:46:09;3.35;;;1.50;;
73557;SDS011;61829;53.286;10.434;2023-07-13T15:48:36;3.20;;;1.77;;
73557;SDS011;61829;53.286;10.434;2023-07-13T15:51:03;3.88;;;1.92;;
73557;SDS011;61829;53.286;10.434;2023-07-13T15:53:32;2.95;;;1.70;;
73557;SDS011;61829;53.286;10.434;2023-07-13T15:55:59;3.50;;;1.55;;
73557;SDS011;61829;53.286;10.434;2023-07-13T15:58:27;4.03;;;1.58;;
73557;SDS011;61829;53.286;10.434;2023-07-13T16:00:54;3.67;;;1.35;;
73557;SDS011;61829;53.286;10.434;2023-07-13T16:03:21;4.60;;;1.45;;
73557;SDS011;61829;53.286;10.434;2023-07-13T16:05:47;3.00;;;1.60;;
73557;SDS011;61829;53.286;10.434;2023-07-13T16:08:26;3.10;;;1.50;;
73557;SDS011;61829;53.286;10.434;2023-07-13T16:10:56;3.38;;;1.50;;
73557;SDS011;61829;53.286;10.434;2023-07-13T16:13:26;3.95;;;1.52;;
73557;SDS011;61829;53.286;10.434;2023-07-13T16:15:53;4.30;;;1.55;;
73557;SDS011;61829;53.286;10.434;2023-07-13T16:18:22;3.60;;;1.80;;
73557;SDS011;61829;53.286;10.434;2023-07-13T16:20:48;5.85;;;1.45;;